Time;durP1;ratioP1;P1;durP2;ratioP2;P2;SDS_P1;SDS_P2;PMS_P1;PMS_P2;Temp;Humidity;BMP_temperature;BMP_pressure;BME280_temperature;BME280_humidity;BME280_pressure;Samples;Min_cycle;Max_cycle;Signal;HPM_P1;HPM_P2
2022/03/12 00:01:32;;;;;;;26.05;12.02;;;;;;;;;;5043328;28;20576;-70
2022/03/12 00:04:00;;;;;;;19.50;10.70;;;;;;;;;;5047829;28;20489;-70
2022/03/12 00:06:25;;;;;;;19.45;11.75;;;;;;;;;;5049117;28;20455;-70
2022/03/12 00:08:53;;;;;;;19.52;10.80;;;;;;;;;;5048970;28;20183;-70
2022/03/12 00:11:28;;;;;;;23.15;11.43;;;;;;;;;;5048857;28;20056;-70
2022/03/12 00:13:53;;;;;;;25.00;11.10;;;;;;;;;;5047671;28;20033;-70
2022/03/12 00:16:24;;;;;;;18.90;10.48;;;;;;;;;;5049378;28;20032;-70
2022/03/12 00:18:55;;;;;;;20.80;11.25;;;;;;;;;;5049405;28;20041;-70
2022/03/12 00:21:22;;;;;;;19.70;11.15;;;;;;;;;;5048116;28;20389;-70
2022/03/12 00:23:48;;;;;;;21.30;11.48;;;;;;;;;;5043425;28;20170;-70
2022/03/12 00:26:15;;;;;;;23.05;12.13;;;;;;;;;;5058349;28;20495;-70
2022/03/12 00:28:42;;;;;;;20.25;10.63;;;;;;;;;;5048541;28;20029;-70
2022/03/12 00:31:07;;;;;;;21.58;11.70;;;;;;;;;;5046332;28;20265;-70
2022/03/12 00:33:33;;;;;;;21.58;11.60;;;;;;;;;;5047307;28;20115;-70
2022/03/12 00:35:58;;;;;;;20.63;10.48;;;;;;;;;;5045727;28;20025;-71
2022/03/12 00:38:24;;;;;;;19.85;10.82;;;;;;;;;;5048506;28;21277;-70
2022/03/12 00:40:49;;;;;;;20.10;11.13;;;;;;;;;;5047558;28;20117;-69
2022/03/12 00:43:15;;;;;;;21.00;10.98;;;;;;;;;;5031256;28;20024;-70
2022/03/12 00:45:40;;;;;;;19.80;11.35;;;;;;;;;;5046458;28;20489;-70
2022/03/12 00:48:06;;;;;;;20.27;11.52;;;;;;;;;;5047428;28;20172;-70
2022/03/12 00:50:32;;;;;;;21.23;11.90;;;;;;;;;;5047020;28;20103;-70
2022/03/12 00:52:57;;;;;;;19.83;11.30;;;;;;;;;;5047421;28;20381;-70
2022/03/12 00:55:22;;;;;;;22.40;11.68;;;;;;;;;;5046616;28;20155;-70
2022/03/12 00:57:47;;;;;;;21.08;10.98;;;;;;;;;;5048187;28;20044;-70
2022/03/12 01:00:14;;;;;;;24.17;11.23;;;;;;;;;;5046761;28;20429;-70
2022/03/12 01:02:39;;;;;;;20.02;11.85;;;;;;;;;;5043319;28;20037;-70
2022/03/12 01:05:04;;;;;;;22.35;11.40;;;;;;;;;;5047578;28;20352;-70
2022/03/12 01:07:30;;;;;;;19.90;11.07;;;;;;;;;;5048507;28;20040;-70
2022/03/12 01:09:56;;;;;;;20.33;11.50;;;;;;;;;;5047912;28;20078;-70
2022/03/12 01:12:21;;;;;;;19.80;11.27;;;;;;;;;;5047056;28;20318;-70
2022/03/12 01:14:46;;;;;;;21.77;11.40;;;;;;;;;;5029551;28;20704;-70
2022/03/12 01:17:12;;;;;;;21.77;12.23;;;;;;;;;;5046838;28;20115;-70
2022/03/12 01:19:38;;;;;;;19.77;11.80;;;;;;;;;;5048414;28;20544;-70
2022/03/12 01:22:03;;;;;;;21.63;12.02;;;;;;;;;;5046200;28;20055;-70
2022/03/12 01:24:29;;;;;;;21.80;12.10;;;;;;;;;;5047696;28;20024;-70
2022/03/12 01:26:55;;;;;;;23.00;13.60;;;;;;;;;;5043129;28;20032;-70
2022/03/12 01:29:20;;;;;;;22.10;12.13;;;;;;;;;;5047601;28;20025;-70
2022/03/12 01:31:45;;;;;;;20.15;11.23;;;;;;;;;;5046357;28;20052;-70
2022/03/12 01:34:10;;;;;;;21.52;12.23;;;;;;;;;;5043285;28;20025;-70
2022/03/12 01:36:35;;;;;;;24.27;12.20;;;;;;;;;;5045439;28;20021;-71
2022/03/12 01:39:01;;;;;;;22.55;12.63;;;;;;;;;;5047515;28;20397;-70
2022/03/12 01:41:28;;;;;;;22.27;13.65;;;;;;;;;;5046954;28;20052;-70
2022/03/12 01:43:53;;;;;;;25.20;12.90;;;;;;;;;;5044690;28;20047;-70
2022/03/12 01:46:19;;;;;;;26.83;14.63;;;;;;;;;;5045635;28;20392;-70
2022/03/12 01:48:45;;;;;;;24.58;13.82;;;;;;;;;;5046901;28;20032;-70
2022/03/12 01:51:10;;;;;;;19.77;11.77;;;;;;;;;;5045487;28;20033;-70
2022/03/12 01:53:35;;;;;;;19.30;10.77;;;;;;;;;;5046307;28;20044;-70
2022/03/12 01:56:00;;;;;;;20.73;10.93;;;;;;;;;;5046806;28;20039;-69
2022/03/12 01:58:26;;;;;;;20.48;11.15;;;;;;;;;;5046079;28;20095;-70
2022/03/12 02:00:52;;;;;;;20.58;11.30;;;;;;;;;;5044298;28;20044;-69
2022/03/12 02:03:23;;;;;;;18.65;11.05;;;;;;;;;;5047325;28;20024;-70
2022/03/12 02:05:48;;;;;;;20.08;11.15;;;;;;;;;;5041310;28;20028;-70
2022/03/12 02:08:13;;;;;;;24.08;13.60;;;;;;;;;;5044804;28;20036;-70
2022/03/12 02:10:39;;;;;;;21.90;12.90;;;;;;;;;;5046030;28;20487;-69
2022/03/12 02:13:04;;;;;;;26.77;13.48;;;;;;;;;;5046108;28;20029;-70
2022/03/12 02:15:29;;;;;;;27.85;14.00;;;;;;;;;;5046547;28;20404;-70
2022/03/12 02:17:54;;;;;;;32.33;14.43;;;;;;;;;;5044127;28;20116;-70
2022/03/12 02:20:20;;;;;;;27.55;14.52;;;;;;;;;;5045936;28;20139;-70
2022/03/12 02:22:45;;;;;;;25.35;14.60;;;;;;;;;;5044276;28;20025;-70
2022/03/12 02:25:12;;;;;;;33.42;14.40;;;;;;;;;;5045419;28;20029;-70
2022/03/12 02:27:37;;;;;;;27.50;14.15;;;;;;;;;;5045701;28;20114;-70
2022/03/12 02:30:07;;;;;;;26.50;13.15;;;;;;;;;;5044706;28;20029;-70
2022/03/12 02:32:33;;;;;;;23.85;13.55;;;;;;;;;;5042713;28;20118;-69
2022/03/12 02:34:59;;;;;;;28.00;15.38;;;;;;;;;;5041862;28;20026;-70
2022/03/12 02:37:32;;;;;;;25.63;14.15;;;;;;;;;;5042533;28;20021;-70
2022/03/12 02:39:58;;;;;;;26.63;14.43;;;;;;;;;;5040946;28;20031;-70
2022/03/12 02:42:24;;;;;;;25.40;13.88;;;;;;;;;;5038355;28;20021;-71
2022/03/12 02:44:52;;;;;;;26.70;14.27;;;;;;;;;;5041842;28;20031;-70
2022/03/12 02:47:22;;;;;;;27.88;15.15;;;;;;;;;;5042224;28;20021;-70
2022/03/12 02:49:52;;;;;;;23.88;13.65;;;;;;;;;;5040755;28;20032;-70
2022/03/12 02:52:17;;;;;;;24.73;13.88;;;;;;;;;;5043866;28;20032;-70
2022/03/12 02:54:42;;;;;;;33.75;15.15;;;;;;;;;;5042487;28;20481;-70
2022/03/12 02:57:08;;;;;;;26.23;14.95;;;;;;;;;;5043827;28;20017;-70
2022/03/12 02:59:34;;;;;;;30.08;15.27;;;;;;;;;;5040918;28;20071;-70
2022/03/12 03:02:03;;;;;;;32.20;15.52;;;;;;;;;;5059697;28;20032;-70
2022/03/12 03:04:34;;;;;;;26.92;15.10;;;;;;;;;;5061138;28;20499;-70
2022/03/12 03:07:00;;;;;;;29.65;14.75;;;;;;;;;;5066360;28;20016;-70
2022/03/12 03:09:25;;;;;;;24.50;14.07;;;;;;;;;;5065295;28;20051;-70
2022/03/12 03:11:53;;;;;;;30.15;14.88;;;;;;;;;;5065666;28;20039;-70
2022/03/12 03:14:19;;;;;;;29.95;14.10;;;;;;;;;;5064743;28;21307;-70
2022/03/12 03:16:47;;;;;;;26.02;14.30;;;;;;;;;;5061376;28;20033;-69
2022/03/12 03:19:15;;;;;;;34.25;14.82;;;;;;;;;;5065649;28;20082;-69
2022/03/12 03:21:40;;;;;;;33.50;15.00;;;;;;;;;;5063191;28;20028;-70
2022/03/12 03:24:05;;;;;;;28.52;14.93;;;;;;;;;;5065230;28;20021;-70
2022/03/12 03:26:33;;;;;;;26.70;15.50;;;;;;;;;;5065588;28;20112;-70
2022/03/12 03:28:59;;;;;;;34.05;15.90;;;;;;;;;;5065698;28;20052;-70
2022/03/12 03:31:24;;;;;;;30.23;16.00;;;;;;;;;;5048191;28;20552;-70
2022/03/12 03:33:50;;;;;;;28.42;15.88;;;;;;;;;;5045902;28;20041;-70
2022/03/12 03:36:15;;;;;;;28.30;15.30;;;;;;;;;;5046927;28;20040;-70
2022/03/12 03:38:40;;;;;;;31.20;14.82;;;;;;;;;;5049890;28;20098;-70
2022/03/12 03:41:05;;;;;;;27.35;14.68;;;;;;;;;;5048951;28;20484;-70
2022/03/12 03:43:31;;;;;;;27.63;13.75;;;;;;;;;;5048811;28;20124;-69
2022/03/12 03:45:56;;;;;;;26.45;13.90;;;;;;;;;;5049950;28;20025;-69
2022/03/12 03:48:22;;;;;;;27.70;14.30;;;;;;;;;;5049805;28;20023;-69
2022/03/12 03:50:47;;;;;;;24.30;13.88;;;;;;;;;;5048910;28;20096;-70
2022/03/12 03:53:13;;;;;;;23.75;13.13;;;;;;;;;;5049281;28;20028;-70
2022/03/12 03:55:39;;;;;;;23.40;13.25;;;;;;;;;;5049623;28;20048;-70
2022/03/12 03:58:04;;;;;;;28.25;13.90;;;;;;;;;;5050251;28;20081;-70
2022/03/12 04:00:33;;;;;;;23.33;13.38;;;;;;;;;;5048722;28;20041;-70
2022/03/12 04:03:02;;;;;;;21.38;12.77;;;;;;;;;;5045776;28;20043;-70
2022/03/12 04:05:28;;;;;;;22.38;12.38;;;;;;;;;;5047677;28;20017;-71
2022/03/12 04:07:54;;;;;;;25.40;13.13;;;;;;;;;;5046341;28;20504;-70
2022/03/12 04:10:19;;;;;;;23.45;13.23;;;;;;;;;;5046479;28;20832;-70
2022/03/12 04:12:45;;;;;;;21.35;11.90;;;;;;;;;;5046135;28;20060;-70
2022/03/12 04:15:10;;;;;;;26.70;13.38;;;;;;;;;;5044937;28;20031;-70
2022/03/12 04:17:35;;;;;;;22.17;12.50;;;;;;;;;;5045912;28;20068;-71
2022/03/12 04:20:01;;;;;;;21.90;12.50;;;;;;;;;;5046261;28;20028;-70
2022/03/12 04:22:26;;;;;;;22.42;13.30;;;;;;;;;;5042724;28;20456;-69
2022/03/12 04:24:51;;;;;;;27.13;13.73;;;;;;;;;;5045876;28;20090;-69
2022/03/12 04:27:16;;;;;;;27.52;13.65;;;;;;;;;;5046560;28;20048;-70
2022/03/12 04:29:42;;;;;;;28.15;14.52;;;;;;;;;;5042310;28;20482;-69
2022/03/12 04:32:10;;;;;;;29.08;15.45;;;;;;;;;;5045780;28;20056;-69
2022/03/12 04:34:35;;;;;;;33.25;16.67;;;;;;;;;;5047264;28;20033;-69
2022/03/12 04:37:00;;;;;;;31.55;16.33;;;;;;;;;;5048294;28;20033;-69
2022/03/12 04:39:26;;;;;;;34.10;15.90;;;;;;;;;;5048747;28;20041;-70
2022/03/12 04:41:51;;;;;;;28.40;15.65;;;;;;;;;;5047865;28;20032;-70
2022/03/12 04:44:16;;;;;;;28.20;15.32;;;;;;;;;;5047545;28;20032;-69
2022/03/12 04:46:42;;;;;;;27.90;15.65;;;;;;;;;;5048372;28;20081;-70
2022/03/12 04:49:07;;;;;;;31.80;15.65;;;;;;;;;;5046896;28;20025;-69
2022/03/12 04:51:32;;;;;;;34.72;16.23;;;;;;;;;;5047631;28;20028;-70
2022/03/12 04:53:58;;;;;;;27.67;14.80;;;;;;;;;;5045098;28;20071;-69
2022/03/12 04:56:24;;;;;;;32.00;15.70;;;;;;;;;;5047895;28;20389;-70
2022/03/12 04:58:49;;;;;;;24.10;13.93;;;;;;;;;;5047984;28;20032;-69
2022/03/12 05:01:15;;;;;;;31.15;15.30;;;;;;;;;;5047473;28;20041;-69
2022/03/12 05:03:43;;;;;;;29.42;15.88;;;;;;;;;;5047626;28;20031;-70
2022/03/12 05:06:09;;;;;;;28.85;15.48;;;;;;;;;;5048125;28;20028;-70
2022/03/12 05:08:36;;;;;;;29.67;14.95;;;;;;;;;;5046935;28;20016;-69
2022/03/12 05:11:01;;;;;;;30.33;16.08;;;;;;;;;;5046679;28;20051;-70
2022/03/12 05:13:27;;;;;;;32.22;15.93;;;;;;;;;;5047531;28;20028;-70
2022/03/12 05:16:03;;;;;;;28.27;13.48;;;;;;;;;;5047566;28;20033;-69
2022/03/12 05:18:29;;;;;;;27.15;12.13;;;;;;;;;;5043298;28;20037;-70
2022/03/12 05:20:54;;;;;;;23.75;12.45;;;;;;;;;;5047075;28;20107;-69
2022/03/12 05:23:20;;;;;;;25.38;13.43;;;;;;;;;;5047209;28;20544;-69
2022/03/12 05:25:47;;;;;;;20.38;12.18;;;;;;;;;;5045255;28;20412;-69
2022/03/12 05:28:16;;;;;;;22.92;12.73;;;;;;;;;;5047690;28;20112;-70
2022/03/12 05:30:41;;;;;;;22.40;11.88;;;;;;;;;;5046024;28;20130;-69
2022/03/12 05:33:06;;;;;;;24.30;12.88;;;;;;;;;;5044219;28;20119;-71
2022/03/12 05:35:32;;;;;;;24.10;13.20;;;;;;;;;;5044974;28;20031;-71
2022/03/12 05:37:57;;;;;;;27.92;12.90;;;;;;;;;;5047386;28;20033;-71
2022/03/12 05:40:26;;;;;;;22.88;11.80;;;;;;;;;;5047439;28;20075;-70
2022/03/12 05:42:55;;;;;;;24.10;12.73;;;;;;;;;;5047738;28;20029;-71
2022/03/12 05:45:21;;;;;;;25.20;13.20;;;;;;;;;;5045757;28;20048;-71
2022/03/12 05:47:47;;;;;;;24.48;12.52;;;;;;;;;;5046843;28;20025;-70
2022/03/12 05:50:13;;;;;;;25.02;13.52;;;;;;;;;;5042174;28;20464;-70
2022/03/12 05:52:38;;;;;;;25.58;13.02;;;;;;;;;;5044264;28;20029;-70
2022/03/12 05:55:05;;;;;;;22.98;12.43;;;;;;;;;;5043901;28;20610;-70
2022/03/12 05:57:31;;;;;;;23.42;13.27;;;;;;;;;;5045900;28;20048;-70
2022/03/12 05:59:57;;;;;;;23.98;13.20;;;;;;;;;;5046784;28;20057;-70
2022/03/12 06:02:22;;;;;;;25.10;13.70;;;;;;;;;;5045742;28;20057;-70
2022/03/12 06:04:47;;;;;;;28.58;14.20;;;;;;;;;;5043388;28;20068;-70
2022/03/12 06:07:13;;;;;;;27.10;13.48;;;;;;;;;;5045352;28;20477;-70
2022/03/12 06:09:38;;;;;;;23.08;13.10;;;;;;;;;;5045923;28;20025;-69
2022/03/12 06:12:04;;;;;;;23.73;13.02;;;;;;;;;;5045936;28;20094;-71
2022/03/12 06:14:29;;;;;;;27.58;13.50;;;;;;;;;;5044932;28;20032;-69
2022/03/12 06:16:55;;;;;;;24.92;13.55;;;;;;;;;;5046152;28;20060;-71
2022/03/12 06:19:20;;;;;;;22.95;13.85;;;;;;;;;;5047293;28;20036;-69
2022/03/12 06:21:46;;;;;;;24.70;13.77;;;;;;;;;;5045417;28;20040;-71
2022/03/12 06:24:12;;;;;;;22.27;13.38;;;;;;;;;;5045746;28;20036;-71
2022/03/12 06:26:39;;;;;;;32.22;15.10;;;;;;;;;;5041476;28;20585;-71
2022/03/12 06:29:05;;;;;;;25.95;13.02;;;;;;;;;;5045438;28;20032;-71
2022/03/12 06:31:32;;;;;;;32.30;14.05;;;;;;;;;;5044639;28;20129;-70
2022/03/12 06:33:57;;;;;;;32.83;14.10;;;;;;;;;;5046783;28;20086;-70
2022/03/12 06:36:23;;;;;;;25.80;13.98;;;;;;;;;;5044704;28;20044;-70
2022/03/12 06:38:49;;;;;;;26.67;14.93;;;;;;;;;;5046506;28;20037;-70
2022/03/12 06:41:14;;;;;;;30.73;14.90;;;;;;;;;;5046543;28;20409;-70
2022/03/12 06:43:42;;;;;;;28.98;13.98;;;;;;;;;;5046527;28;20032;-70
2022/03/12 06:46:08;;;;;;;28.35;13.30;;;;;;;;;;5046628;28;20436;-71
2022/03/12 06:48:34;;;;;;;27.13;14.10;;;;;;;;;;5045328;28;20063;-71
2022/03/12 06:51:00;;;;;;;31.77;15.00;;;;;;;;;;5045395;28;20104;-70
2022/03/12 06:53:25;;;;;;;25.33;14.18;;;;;;;;;;5045962;28;20107;-70
2022/03/12 06:55:50;;;;;;;28.00;14.43;;;;;;;;;;5045492;28;20021;-70
2022/03/12 06:58:15;;;;;;;27.25;13.98;;;;;;;;;;5045561;28;20017;-70
2022/03/12 07:00:40;;;;;;;28.60;14.85;;;;;;;;;;5043066;28;20037;-70
2022/03/12 07:03:06;;;;;;;26.00;13.02;;;;;;;;;;5045876;28;20025;-70
2022/03/12 07:05:31;;;;;;;28.10;14.45;;;;;;;;;;5046256;28;20032;-70
2022/03/12 07:07:56;;;;;;;32.60;14.73;;;;;;;;;;5044543;28;20029;-70
2022/03/12 07:10:22;;;;;;;29.27;15.02;;;;;;;;;;5040513;28;20066;-70
2022/03/12 07:12:47;;;;;;;25.38;14.02;;;;;;;;;;5046319;28;20032;-70
2022/03/12 07:15:12;;;;;;;26.30;14.23;;;;;;;;;;5045311;28;20055;-70
2022/03/12 07:17:38;;;;;;;32.83;14.73;;;;;;;;;;5039969;28;20032;-70
2022/03/12 07:20:03;;;;;;;25.83;13.43;;;;;;;;;;5045892;28;20025;-70
2022/03/12 07:22:28;;;;;;;31.27;13.90;;;;;;;;;;5045391;28;20032;-70
2022/03/12 07:24:54;;;;;;;23.73;13.35;;;;;;;;;;5044152;28;20079;-70
2022/03/12 07:27:19;;;;;;;25.17;13.20;;;;;;;;;;5044658;28;20021;-70
2022/03/12 07:29:44;;;;;;;26.08;14.10;;;;;;;;;;5044482;28;20621;-70
2022/03/12 07:32:11;;;;;;;27.05;14.30;;;;;;;;;;5043669;28;20029;-70
2022/03/12 07:34:36;;;;;;;25.60;12.90;;;;;;;;;;5040306;28;20025;-70
2022/03/12 07:37:01;;;;;;;24.88;14.07;;;;;;;;;;5045822;28;20044;-70
2022/03/12 07:39:26;;;;;;;25.08;13.43;;;;;;;;;;5043416;28;20501;-70
2022/03/12 07:41:52;;;;;;;24.02;12.02;;;;;;;;;;5043571;28;20035;-70
2022/03/12 07:44:17;;;;;;;29.08;12.88;;;;;;;;;;5044789;28;20021;-70
2022/03/12 07:46:43;;;;;;;22.05;11.48;;;;;;;;;;5042157;28;20028;-70
2022/03/12 07:49:08;;;;;;;20.20;11.63;;;;;;;;;;5041198;28;20032;-70
2022/03/12 07:51:34;;;;;;;35.15;12.60;;;;;;;;;;5044208;28;20141;-70
2022/03/12 07:54:00;;;;;;;18.98;9.85;;;;;;;;;;5045598;28;20053;-70
2022/03/12 07:56:25;;;;;;;22.00;11.35;;;;;;;;;;5044657;28;20033;-70
2022/03/12 07:58:51;;;;;;;20.90;10.65;;;;;;;;;;5043479;28;20025;-70
2022/03/12 08:01:16;;;;;;;20.30;9.88;;;;;;;;;;5041971;28;20048;-70
2022/03/12 08:03:41;;;;;;;17.63;9.65;;;;;;;;;;5042406;28;20028;-70
2022/03/12 08:06:07;;;;;;;19.48;10.20;;;;;;;;;;5041976;28;20507;-70
2022/03/12 08:08:32;;;;;;;21.67;10.25;;;;;;;;;;5042566;28;20021;-70
2022/03/12 08:13:44;;;;;;;22.90;10.82;;;;;;;;;;5043984;28;20039;-70
2022/03/12 08:16:09;;;;;;;21.02;9.90;;;;;;;;;;5045095;28;20024;-70
2022/03/12 08:18:34;;;;;;;21.45;10.75;;;;;;;;;;5045863;28;20021;-70
2022/03/12 08:21:00;;;;;;;17.98;9.43;;;;;;;;;;5043184;28;20025;-71
2022/03/12 08:23:25;;;;;;;18.67;9.50;;;;;;;;;;5046791;28;20021;-70
2022/03/12 08:25:50;;;;;;;20.08;9.80;;;;;;;;;;5048528;28;20060;-70
2022/03/12 08:28:18;;;;;;;18.77;9.80;;;;;;;;;;5049110;28;20021;-70
2022/03/12 08:30:43;;;;;;;17.85;9.68;;;;;;;;;;5046666;28;20036;-70
2022/03/12 08:33:09;;;;;;;21.65;10.00;;;;;;;;;;5047707;28;20031;-70
2022/03/12 08:35:34;;;;;;;20.67;10.07;;;;;;;;;;5046321;28;20020;-70
2022/03/12 08:38:00;;;;;;;20.45;10.45;;;;;;;;;;5048250;28;20025;-70
2022/03/12 08:40:25;;;;;;;20.30;10.35;;;;;;;;;;5045493;28;20075;-71
2022/03/12 08:42:51;;;;;;;23.88;10.93;;;;;;;;;;5046317;28;21395;-70
2022/03/12 08:45:17;;;;;;;21.05;10.70;;;;;;;;;;5046761;28;20017;-70
2022/03/12 08:47:43;;;;;;;18.65;10.50;;;;;;;;;;5047338;28;20021;-70
2022/03/12 08:50:08;;;;;;;23.33;11.48;;;;;;;;;;5048034;28;20047;-70
2022/03/12 08:52:35;;;;;;;18.23;10.43;;;;;;;;;;5046876;28;20025;-70
2022/03/12 08:55:00;;;;;;;19.50;10.48;;;;;;;;;;5047986;28;20036;-70
2022/03/12 08:57:25;;;;;;;18.55;9.77;;;;;;;;;;5048291;28;20028;-70
2022/03/12 08:59:50;;;;;;;19.27;10.43;;;;;;;;;;5047775;28;20023;-70
2022/03/12 09:02:15;;;;;;;21.48;10.65;;;;;;;;;;5046151;28;20036;-70
2022/03/12 09:04:41;;;;;;;16.98;9.45;;;;;;;;;;5047315;28;20403;-70
2022/03/12 09:07:07;;;;;;;22.95;10.50;;;;;;;;;;5042931;28;20013;-70
2022/03/12 09:09:32;;;;;;;20.25;10.13;;;;;;;;;;5048458;28;20031;-70
2022/03/12 09:11:57;;;;;;;21.52;10.43;;;;;;;;;;5046694;28;20091;-70
2022/03/12 09:14:22;;;;;;;20.05;9.95;;;;;;;;;;5046899;28;20025;-71
2022/03/12 09:16:47;;;;;;;24.25;11.68;;;;;;;;;;5043259;28;20025;-70
2022/03/12 09:19:13;;;;;;;21.65;10.85;;;;;;;;;;5048130;28;20546;-71
2022/03/12 09:21:38;;;;;;;21.67;11.02;;;;;;;;;;5047276;28;20029;-71
2022/03/12 09:24:04;;;;;;;17.17;9.63;;;;;;;;;;5047554;28;20044;-71
2022/03/12 09:26:29;;;;;;;18.77;10.30;;;;;;;;;;5047765;28;20039;-71
2022/03/12 09:28:55;;;;;;;19.80;10.40;;;;;;;;;;5045832;28;20552;-71
2022/03/12 09:31:21;;;;;;;21.92;10.82;;;;;;;;;;5046432;28;20070;-71
2022/03/12 09:33:46;;;;;;;22.10;10.15;;;;;;;;;;5045254;28;20404;-71
2022/03/12 09:36:11;;;;;;;18.40;9.18;;;;;;;;;;5046650;28;20033;-71
2022/03/12 09:38:37;;;;;;;19.40;10.73;;;;;;;;;;5030267;28;20033;-71
2022/03/12 09:41:02;;;;;;;22.00;10.75;;;;;;;;;;5047299;28;20112;-70
2022/03/12 09:43:28;;;;;;;19.13;10.32;;;;;;;;;;5045736;28;20097;-71
2022/03/12 09:45:53;;;;;;;20.48;10.32;;;;;;;;;;5048550;28;20024;-71
2022/03/12 09:48:18;;;;;;;23.10;11.15;;;;;;;;;;5045147;28;20404;-71
2022/03/12 09:50:43;;;;;;;19.75;10.60;;;;;;;;;;5040095;28;20566;-70
2022/03/12 09:53:09;;;;;;;20.75;9.90;;;;;;;;;;5045589;28;20446;-70
2022/03/12 09:55:34;;;;;;;20.15;10.45;;;;;;;;;;5047526;28;20032;-70
2022/03/12 09:57:59;;;;;;;18.92;10.30;;;;;;;;;;5047946;28;20035;-70
2022/03/12 10:00:26;;;;;;;17.35;10.38;;;;;;;;;;5045555;28;20045;-70
2022/03/12 10:02:51;;;;;;;19.20;10.80;;;;;;;;;;5046111;28;20499;-70
2022/03/12 10:05:16;;;;;;;18.65;10.13;;;;;;;;;;5046658;28;20024;-70
2022/03/12 10:07:42;;;;;;;20.25;11.05;;;;;;;;;;5046850;28;20032;-71
2022/03/12 10:10:15;;;;;;;17.58;10.10;;;;;;;;;;5047403;28;20013;-70
2022/03/12 10:12:41;;;;;;;18.15;10.20;;;;;;;;;;5042484;28;20032;-70
2022/03/12 10:15:07;;;;;;;16.95;9.85;;;;;;;;;;5046434;28;20036;-70
2022/03/12 10:17:32;;;;;;;18.75;10.65;;;;;;;;;;5046299;28;20366;-70
2022/03/12 10:19:57;;;;;;;22.55;10.70;;;;;;;;;;5042748;28;20025;-70
2022/03/12 10:22:23;;;;;;;17.90;10.60;;;;;;;;;;5046572;28;20108;-70
2022/03/12 10:24:48;;;;;;;17.23;10.18;;;;;;;;;;5045452;28;20033;-71
2022/03/12 10:27:13;;;;;;;19.60;10.73;;;;;;;;;;5047053;28;20545;-71
2022/03/12 10:29:39;;;;;;;17.60;10.80;;;;;;;;;;5041454;28;20028;-70
2022/03/12 10:32:23;;;;;;;17.70;10.20;;;;;;;;;;5045750;28;20481;-71
2022/03/12 10:34:52;;;;;;;25.60;11.60;;;;;;;;;;5045206;28;20021;-72
2022/03/12 10:37:18;;;;;;;17.85;10.85;;;;;;;;;;5043210;28;20386;-70
2022/03/12 10:39:43;;;;;;;21.75;11.23;;;;;;;;;;5043040;28;20033;-70
2022/03/12 10:42:08;;;;;;;18.40;10.52;;;;;;;;;;5046395;28;20028;-70
2022/03/12 10:44:37;;;;;;;19.45;10.35;;;;;;;;;;5044346;28;20469;-70
2022/03/12 10:47:03;;;;;;;20.35;11.57;;;;;;;;;;5045774;28;20104;-71
2022/03/12 10:49:28;;;;;;;20.77;10.68;;;;;;;;;;5045408;28;20543;-71
2022/03/12 10:51:56;;;;;;;20.10;11.23;;;;;;;;;;5045187;28;20047;-70
2022/03/12 10:54:21;;;;;;;21.92;12.15;;;;;;;;;;5045009;28;20025;-70
2022/03/12 10:56:47;;;;;;;21.77;11.45;;;;;;;;;;5044733;28;20477;-70
2022/03/12 10:59:32;;;;;;;20.40;12.48;;;;;;;;;;5041835;28;20051;-70
2022/03/12 11:01:59;;;;;;;17.55;10.45;;;;;;;;;;5043731;28;20440;-70
2022/03/12 11:04:26;;;;;;;20.55;12.18;;;;;;;;;;5043525;28;20027;-71
2022/03/12 11:06:52;;;;;;;23.02;11.10;;;;;;;;;;5043643;28;20388;-71
2022/03/12 11:09:18;;;;;;;24.48;11.95;;;;;;;;;;5044283;28;20033;-70
2022/03/12 11:11:44;;;;;;;20.50;11.00;;;;;;;;;;5044760;28;20488;-70
2022/03/12 11:14:11;;;;;;;20.48;11.45;;;;;;;;;;5045668;28;20047;-70
2022/03/12 11:16:36;;;;;;;20.17;10.43;;;;;;;;;;5043554;28;20029;-70
2022/03/12 11:19:02;;;;;;;20.25;11.85;;;;;;;;;;5045427;28;20489;-71
2022/03/12 11:21:28;;;;;;;21.02;12.30;;;;;;;;;;5045437;28;20029;-70
2022/03/12 11:23:54;;;;;;;21.73;11.60;;;;;;;;;;5044889;28;20040;-71
2022/03/12 11:26:19;;;;;;;22.02;12.30;;;;;;;;;;5044575;28;20044;-71
2022/03/12 11:28:56;;;;;;;24.73;13.00;;;;;;;;;;5045509;28;20077;-70
2022/03/12 11:31:36;;;;;;;21.13;13.05;;;;;;;;;;5026584;28;20764;-71
2022/03/12 11:34:11;;;;;;;21.80;11.90;;;;;;;;;;5045371;28;20082;-70
2022/03/12 11:36:36;;;;;;;24.38;12.75;;;;;;;;;;5044570;28;20095;-71
2022/03/12 11:39:02;;;;;;;20.98;12.10;;;;;;;;;;5046216;28;20037;-71
2022/03/12 11:41:27;;;;;;;20.70;11.98;;;;;;;;;;5045421;28;20044;-71
2022/03/12 11:43:53;;;;;;;20.77;12.05;;;;;;;;;;5045466;28;20036;-71
2022/03/12 11:46:18;;;;;;;25.02;12.15;;;;;;;;;;5045888;28;20025;-71
2022/03/12 11:48:43;;;;;;;23.55;12.77;;;;;;;;;;5044747;28;20485;-70
2022/03/12 11:51:22;;;;;;;21.75;12.27;;;;;;;;;;5045918;28;20032;-70
2022/03/12 11:53:47;;;;;;;19.90;12.15;;;;;;;;;;5043005;28;20028;-70
2022/03/12 11:56:13;;;;;;;22.70;12.65;;;;;;;;;;5040547;28;20028;-70
2022/03/12 11:58:39;;;;;;;24.90;12.30;;;;;;;;;;5047841;28;20028;-70
2022/03/12 12:01:05;;;;;;;22.35;12.40;;;;;;;;;;5047667;28;20355;-72
2022/03/12 12:03:30;;;;;;;24.13;12.00;;;;;;;;;;5057111;28;20035;-71
2022/03/12 12:05:56;;;;;;;23.67;12.80;;;;;;;;;;5013164;28;20029;-72
2022/03/12 12:08:22;;;;;;;23.75;13.05;;;;;;;;;;5046766;28;20040;-71
2022/03/12 12:10:47;;;;;;;25.95;12.82;;;;;;;;;;5048303;28;20160;-71
2022/03/12 12:13:13;;;;;;;20.42;11.70;;;;;;;;;;5047786;28;20025;-71
2022/03/12 12:15:39;;;;;;;19.70;12.27;;;;;;;;;;5047660;28;20037;-71
2022/03/12 12:18:05;;;;;;;20.48;12.80;;;;;;;;;;5042409;28;20447;-70
2022/03/12 12:20:31;;;;;;;24.13;12.60;;;;;;;;;;5043613;28;20035;-70
2022/03/12 12:22:57;;;;;;;23.33;12.60;;;;;;;;;;5049288;28;20056;-71
2022/03/12 12:25:22;;;;;;;18.83;11.90;;;;;;;;;;5048363;28;20021;-71
2022/03/12 12:27:51;;;;;;;19.98;12.00;;;;;;;;;;5048296;28;20437;-71
2022/03/12 12:30:38;;;;;;;18.13;11.43;;;;;;;;;;5047716;28;20066;-70
2022/03/12 12:33:13;;;;;;;25.55;12.57;;;;;;;;;;5048718;28;20028;-71
2022/03/12 12:35:39;;;;;;;25.23;12.88;;;;;;;;;;5046959;28;20135;-71
2022/03/12 12:38:09;;;;;;;20.55;12.68;;;;;;;;;;5044031;28;20044;-71
2022/03/12 12:40:46;;;;;;;22.50;12.25;;;;;;;;;;5046709;28;20098;-70
2022/03/12 12:43:13;;;;;;;22.95;12.85;;;;;;;;;;5047786;28;20025;-70
2022/03/12 12:46:04;;;;;;;22.38;12.27;;;;;;;;;;5030251;28;20029;-70
2022/03/12 12:48:32;;;;;;;22.98;13.30;;;;;;;;;;5048600;28;20036;-72
2022/03/12 12:51:05;;;;;;;25.35;14.15;;;;;;;;;;5047683;28;21401;-72
2022/03/12 12:53:31;;;;;;;21.17;13.30;;;;;;;;;;5048426;28;20032;-71
2022/03/12 12:56:33;;;;;;;21.73;12.60;;;;;;;;;;5046446;28;20112;-71
2022/03/12 12:58:58;;;;;;;21.40;12.48;;;;;;;;;;5047113;28;20512;-71
2022/03/12 13:01:34;;;;;;;22.20;13.43;;;;;;;;;;5050808;28;20033;-70
2022/03/12 13:04:00;;;;;;;24.92;13.25;;;;;;;;;;5052808;28;20424;-70
2022/03/12 13:06:40;;;;;;;22.10;13.40;;;;;;;;;;5057230;28;20056;-69
2022/03/12 13:09:08;;;;;;;30.88;14.27;;;;;;;;;;5051386;28;20507;-69
2022/03/12 13:11:34;;;;;;;29.25;13.60;;;;;;;;;;5051343;28;20087;-70
2022/03/12 13:14:01;;;;;;;23.25;13.80;;;;;;;;;;5036631;28;20025;-69
2022/03/12 13:16:27;;;;;;;29.83;14.52;;;;;;;;;;5067190;28;20020;-70
2022/03/12 13:18:52;;;;;;;23.50;13.25;;;;;;;;;;5056703;28;20812;-70
2022/03/12 13:21:33;;;;;;;30.83;14.68;;;;;;;;;;5056543;28;20033;-69
2022/03/12 13:23:58;;;;;;;23.42;14.05;;;;;;;;;;5050632;28;20045;-69
2022/03/12 13:26:26;;;;;;;25.52;14.40;;;;;;;;;;5054532;28;20040;-68
2022/03/12 13:28:53;;;;;;;23.77;13.98;;;;;;;;;;5054760;28;20028;-70
2022/03/12 13:31:29;;;;;;;23.08;14.57;;;;;;;;;;5054113;28;20029;-70
2022/03/12 13:33:58;;;;;;;22.55;14.00;;;;;;;;;;5050820;28;20029;-71
2022/03/12 13:36:30;;;;;;;23.40;14.93;;;;;;;;;;5052410;28;20112;-71
2022/03/12 13:38:55;;;;;;;23.65;14.93;;;;;;;;;;5061614;28;20033;-70
2022/03/12 13:41:21;;;;;;;23.25;15.27;;;;;;;;;;5066954;28;20070;-70
2022/03/12 13:43:47;;;;;;;19.75;13.52;;;;;;;;;;5049967;28;20398;-69
2022/03/12 13:46:13;;;;;;;22.30;14.20;;;;;;;;;;5054775;28;20104;-70
2022/03/12 13:48:39;;;;;;;24.63;14.73;;;;;;;;;;5049897;28;20078;-69
2022/03/12 13:51:05;;;;;;;19.58;13.55;;;;;;;;;;5049151;28;20021;-71
2022/03/12 13:53:30;;;;;;;19.23;13.73;;;;;;;;;;5050131;28;20100;-70
2022/03/12 13:56:14;;;;;;;21.35;15.15;;;;;;;;;;5056503;28;20036;-70
2022/03/12 13:58:41;;;;;;;23.52;14.32;;;;;;;;;;5051481;28;20052;-69
2022/03/12 14:01:07;;;;;;;27.98;15.27;;;;;;;;;;5049284;28;20032;-70
2022/03/12 14:03:42;;;;;;;22.50;14.90;;;;;;;;;;5051078;28;20040;-70
2022/03/12 14:06:08;;;;;;;24.20;14.75;;;;;;;;;;5058378;28;20037;-70
2022/03/12 14:08:34;;;;;;;20.95;15.32;;;;;;;;;;5052254;28;20376;-69
2022/03/12 14:10:59;;;;;;;22.52;14.82;;;;;;;;;;5029548;28;20033;-69
2022/03/12 14:13:25;;;;;;;21.48;15.43;;;;;;;;;;5045348;28;20435;-70
2022/03/12 14:15:51;;;;;;;26.10;15.35;;;;;;;;;;5050320;28;20025;-70
2022/03/12 14:18:25;;;;;;;21.77;14.57;;;;;;;;;;5050872;28;20025;-70